sensor_id;sensor_type;location;lat;lon;timestamp;temperature;humidity
44723;DHT22;30451;48.638;10.624;2024-03-02T00:02:19;20.70;53.00
44723;DHT22;30451;48.638;10.624;2024-03-02T00:04:45;20.70;53.00
44723;DHT22;30451;48.638;10.624;2024-03-02T00:07:14;20.70;53.00
44723;DHT22;30451;48.638;10.624;2024-03-02T00:09:40;20.70;53.00
44723;DHT22;30451;48.638;10.624;2024-03-02T00:12:06;20.70;53.00
44723;DHT22;30451;48.638;10.624;2024-03-02T00:14:31;20.70;53.00
44723;DHT22;30451;48.638;10.624;2024-03-02T00:16:57;20.70;53.00
44723;DHT22;30451;48.638;10.624;2024-03-02T00:19:23;20.70;53.00
44723;DHT22;30451;48.638;10.624;2024-03-02T00:21:48;20.70;53.00
44723;DHT22;30451;48.638;10.624;2024-03-02T00:24:43;20.70;53.00
44723;DHT22;30451;48.638;10.624;2024-03-02T00:27:13;20.70;53.00
44723;DHT22;30451;48.638;10.624;2024-03-02T00:29:40;20.70;53.00
44723;DHT22;30451;48.638;10.624;2024-03-02T00:32:14;20.70;53.00
44723;DHT22;30451;48.638;10.624;2024-03-02T00:34:41;20.60;52.90
44723;DHT22;30451;48.638;10.624;2024-03-02T00:37:06;20.60;52.90
44723;DHT22;30451;48.638;10.624;2024-03-02T00:39:33;20.60;52.90
44723;DHT22;30451;48.638;10.624;2024-03-02T00:41:58;20.60;52.90
44723;DHT22;30451;48.638;10.624;2024-03-02T00:44:25;20.60;52.90
44723;DHT22;30451;48.638;10.624;2024-03-02T00:46:59;20.60;52.90
44723;DHT22;30451;48.638;10.624;2024-03-02T00:49:26;20.60;52.90
44723;DHT22;30451;48.638;10.624;2024-03-02T00:51:53;20.60;52.90
44723;DHT22;30451;48.638;10.624;2024-03-02T00:54:24;20.60;52.90
44723;DHT22;30451;48.638;10.624;2024-03-02T00:56:51;20.60;52.90
44723;DHT22;30451;48.638;10.624;2024-03-02T00:59:17;20.60;52.90
44723;DHT22;30451;48.638;10.624;2024-03-02T01:01:43;20.60;52.90
44723;DHT22;30451;48.638;10.624;2024-03-02T01:04:09;20.60;52.90
44723;DHT22;30451;48.638;10.624;2024-03-02T01:06:35;20.60;52.90
44723;DHT22;30451;48.638;10.624;2024-03-02T01:09:01;20.50;52.90
44723;DHT22;30451;48.638;10.624;2024-03-02T01:11:28;20.50;52.90
44723;DHT22;30451;48.638;10.624;2024-03-02T01:13:54;20.50;52.90
44723;DHT22;30451;48.638;10.624;2024-03-02T01:16:20;20.50;52.90
44723;DHT22;30451;48.638;10.624;2024-03-02T01:18:45;20.50;52.90
44723;DHT22;30451;48.638;10.624;2024-03-02T01:21:11;20.50;52.90
44723;DHT22;30451;48.638;10.624;2024-03-02T01:23:37;20.50;52.90
44723;DHT22;30451;48.638;10.624;2024-03-02T01:26:03;20.50;53.00
44723;DHT22;30451;48.638;10.624;2024-03-02T01:28:29;20.50;52.90
44723;DHT22;30451;48.638;10.624;2024-03-02T01:30:54;20.50;52.90
44723;DHT22;30451;48.638;10.624;2024-03-02T01:33:20;20.50;52.90
44723;DHT22;30451;48.638;10.624;2024-03-02T01:35:46;20.40;52.90
44723;DHT22;30451;48.638;10.624;2024-03-02T01:38:13;20.40;52.90
44723;DHT22;30451;48.638;10.624;2024-03-02T01:40:39;20.50;52.90
44723;DHT22;30451;48.638;10.624;2024-03-02T01:43:05;20.50;52.90
44723;DHT22;30451;48.638;10.624;2024-03-02T01:45:31;20.40;52.90
44723;DHT22;30451;48.638;10.624;2024-03-02T01:47:58;20.40;52.90
44723;DHT22;30451;48.638;10.624;2024-03-02T01:50:31;20.40;52.90
44723;DHT22;30451;48.638;10.624;2024-03-02T01:52:57;20.40;52.90
44723;DHT22;30451;48.638;10.624;2024-03-02T01:55:23;20.40;52.90
44723;DHT22;30451;48.638;10.624;2024-03-02T01:57:50;20.40;52.90
44723;DHT22;30451;48.638;10.624;2024-03-02T02:00:19;20.40;53.00
44723;DHT22;30451;48.638;10.624;2024-03-02T02:02:49;20.40;52.90
44723;DHT22;30451;48.638;10.624;2024-03-02T02:05:15;20.40;52.90
44723;DHT22;30451;48.638;10.624;2024-03-02T02:07:41;20.40;52.90
44723;DHT22;30451;48.638;10.624;2024-03-02T02:10:08;20.40;52.90
44723;DHT22;30451;48.638;10.624;2024-03-02T02:12:35;20.40;52.90
44723;DHT22;30451;48.638;10.624;2024-03-02T02:15:01;20.40;52.90
44723;DHT22;30451;48.638;10.624;2024-03-02T02:17:27;20.40;52.90
44723;DHT22;30451;48.638;10.624;2024-03-02T02:19:52;20.40;52.90
44723;DHT22;30451;48.638;10.624;2024-03-02T02:22:18;20.40;52.90
44723;DHT22;30451;48.638;10.624;2024-03-02T02:24:44;20.40;52.90
44723;DHT22;30451;48.638;10.624;2024-03-02T02:27:09;20.40;52.80
44723;DHT22;30451;48.638;10.624;2024-03-02T02:29:35;20.40;52.80
44723;DHT22;30451;48.638;10.624;2024-03-02T02:32:01;20.30;52.80
44723;DHT22;30451;48.638;10.624;2024-03-02T02:34:27;20.30;52.80
44723;DHT22;30451;48.638;10.624;2024-03-02T02:36:53;20.30;52.80
44723;DHT22;30451;48.638;10.624;2024-03-02T02:39:21;20.30;52.80
44723;DHT22;30451;48.638;10.624;2024-03-02T02:41:47;20.30;52.80
44723;DHT22;30451;48.638;10.624;2024-03-02T02:44:13;20.30;52.80
44723;DHT22;30451;48.638;10.624;2024-03-02T02:46:40;20.30;52.80
44723;DHT22;30451;48.638;10.624;2024-03-02T02:49:06;20.30;53.30
44723;DHT22;30451;48.638;10.624;2024-03-02T02:51:31;20.30;52.80
44723;DHT22;30451;48.638;10.624;2024-03-02T02:53:57;20.30;52.70
44723;DHT22;30451;48.638;10.624;2024-03-02T02:56:23;20.30;52.70
44723;DHT22;30451;48.638;10.624;2024-03-02T02:58:48;20.30;52.70
44723;DHT22;30451;48.638;10.624;2024-03-02T03:01:15;20.30;52.70
44723;DHT22;30451;48.638;10.624;2024-03-02T03:03:43;20.30;52.70
44723;DHT22;30451;48.638;10.624;2024-03-02T03:06:09;20.30;52.70
44723;DHT22;30451;48.638;10.624;2024-03-02T03:08:35;20.30;52.70
44723;DHT22;30451;48.638;10.624;2024-03-02T03:11:00;20.30;52.70
44723;DHT22;30451;48.638;10.624;2024-03-02T03:13:26;20.30;52.70
44723;DHT22;30451;48.638;10.624;2024-03-02T03:15:52;20.30;52.70
44723;DHT22;30451;48.638;10.624;2024-03-02T03:18:18;20.30;52.70
44723;DHT22;30451;48.638;10.624;2024-03-02T03:20:44;20.30;52.70
44723;DHT22;30451;48.638;10.624;2024-03-02T03:23:09;20.20;52.70
44723;DHT22;30451;48.638;10.624;2024-03-02T03:25:40;20.20;52.70
44723;DHT22;30451;48.638;10.624;2024-03-02T03:28:06;20.20;52.70
44723;DHT22;30451;48.638;10.624;2024-03-02T03:30:32;20.20;52.70
44723;DHT22;30451;48.638;10.624;2024-03-02T03:32:58;20.20;52.70
44723;DHT22;30451;48.638;10.624;2024-03-02T03:35:23;20.20;52.70
44723;DHT22;30451;48.638;10.624;2024-03-02T03:37:49;20.20;52.70
44723;DHT22;30451;48.638;10.624;2024-03-02T03:40:14;20.20;53.20
44723;DHT22;30451;48.638;10.624;2024-03-02T03:42:40;20.20;52.70
44723;DHT22;30451;48.638;10.624;2024-03-02T03:45:06;20.20;52.70
44723;DHT22;30451;48.638;10.624;2024-03-02T03:47:32;20.20;52.70
44723;DHT22;30451;48.638;10.624;2024-03-02T03:49:58;20.20;52.70
44723;DHT22;30451;48.638;10.624;2024-03-02T03:52:24;20.20;52.70
44723;DHT22;30451;48.638;10.624;2024-03-02T03:54:50;20.20;52.70
44723;DHT22;30451;48.638;10.624;2024-03-02T03:57:16;20.20;52.70
44723;DHT22;30451;48.638;10.624;2024-03-02T03:59:42;20.10;52.70
44723;DHT22;30451;48.638;10.624;2024-03-02T04:02:08;20.20;52.70
44723;DHT22;30451;48.638;10.624;2024-03-02T04:04:34;20.20;52.70
44723;DHT22;30451;48.638;10.624;2024-03-02T04:07:00;20.20;52.70
44723;DHT22;30451;48.638;10.624;2024-03-02T04:09:26;20.20;52.70
44723;DHT22;30451;48.638;10.624;2024-03-02T04:11:52;20.20;52.70
44723;DHT22;30451;48.638;10.624;2024-03-02T04:14:18;20.20;52.80
44723;DHT22;30451;48.638;10.624;2024-03-02T04:16:44;20.10;52.70
44723;DHT22;30451;48.638;10.624;2024-03-02T04:19:09;20.10;52.60
44723;DHT22;30451;48.638;10.624;2024-03-02T04:21:35;20.10;52.70
44723;DHT22;30451;48.638;10.624;2024-03-02T04:24:00;20.10;52.70
44723;DHT22;30451;48.638;10.624;2024-03-02T04:26:26;20.10;52.70
44723;DHT22;30451;48.638;10.624;2024-03-02T04:28:53;20.10;52.70
44723;DHT22;30451;48.638;10.624;2024-03-02T04:31:19;20.10;52.70
44723;DHT22;30451;48.638;10.624;2024-03-02T04:33:45;20.10;52.70
44723;DHT22;30451;48.638;10.624;2024-03-02T04:36:11;20.10;52.70
44723;DHT22;30451;48.638;10.624;2024-03-02T04:38:37;20.10;52.70
44723;DHT22;30451;48.638;10.624;2024-03-02T04:41:04;20.10;52.70
44723;DHT22;30451;48.638;10.624;2024-03-02T04:43:31;20.10;52.70
44723;DHT22;30451;48.638;10.624;2024-03-02T04:45:58;20.10;52.70
44723;DHT22;30451;48.638;10.624;2024-03-02T04:48:23;20.10;52.70
44723;DHT22;30451;48.638;10.624;2024-03-02T04:50:49;20.10;52.70
44723;DHT22;30451;48.638;10.624;2024-03-02T04:53:15;20.10;52.70
44723;DHT22;30451;48.638;10.624;2024-03-02T04:55:40;20.10;52.70
44723;DHT22;30451;48.638;10.624;2024-03-02T04:58:06;20.10;52.70
44723;DHT22;30451;48.638;10.624;2024-03-02T05:00:34;20.10;52.70
44723;DHT22;30451;48.638;10.624;2024-03-02T05:03:00;20.10;52.70
44723;DHT22;30451;48.638;10.624;2024-03-02T05:05:26;20.10;52.70
44723;DHT22;30451;48.638;10.624;2024-03-02T05:07:52;20.00;52.70
44723;DHT22;30451;48.638;10.624;2024-03-02T05:10:18;20.00;52.70
44723;DHT22;30451;48.638;10.624;2024-03-02T05:12:44;20.00;52.70
44723;DHT22;30451;48.638;10.624;2024-03-02T05:15:14;20.00;52.70
44723;DHT22;30451;48.638;10.624;2024-03-02T05:17:41;20.00;52.70
44723;DHT22;30451;48.638;10.624;2024-03-02T05:20:09;20.00;52.70
44723;DHT22;30451;48.638;10.624;2024-03-02T05:22:36;20.00;52.70
44723;DHT22;30451;48.638;10.624;2024-03-02T05:25:03;20.00;52.80
44723;DHT22;30451;48.638;10.624;2024-03-02T05:27:29;20.00;52.70
44723;DHT22;30451;48.638;10.624;2024-03-02T05:29:55;20.00;52.80
44723;DHT22;30451;48.638;10.624;2024-03-02T05:32:21;20.00;52.80
44723;DHT22;30451;48.638;10.624;2024-03-02T05:34:47;20.00;52.70
44723;DHT22;30451;48.638;10.624;2024-03-02T05:37:13;20.00;52.80
44723;DHT22;30451;48.638;10.624;2024-03-02T05:39:38;20.00;52.80
44723;DHT22;30451;48.638;10.624;2024-03-02T05:42:04;20.00;52.80
44723;DHT22;30451;48.638;10.624;2024-03-02T05:44:30;20.00;52.80
44723;DHT22;30451;48.638;10.624;2024-03-02T05:46:55;20.00;52.80
44723;DHT22;30451;48.638;10.624;2024-03-02T05:49:21;20.00;52.80
44723;DHT22;30451;48.638;10.624;2024-03-02T05:51:47;20.00;52.80
44723;DHT22;30451;48.638;10.624;2024-03-02T05:54:13;20.00;52.80
44723;DHT22;30451;48.638;10.624;2024-03-02T05:56:38;20.00;52.80
44723;DHT22;30451;48.638;10.624;2024-03-02T05:59:04;20.00;52.80
44723;DHT22;30451;48.638;10.624;2024-03-02T06:01:47;20.00;52.80
44723;DHT22;30451;48.638;10.624;2024-03-02T06:04:15;20.00;53.30
44723;DHT22;30451;48.638;10.624;2024-03-02T06:06:41;20.00;52.80
44723;DHT22;30451;48.638;10.624;2024-03-02T06:09:07;20.00;52.80
44723;DHT22;30451;48.638;10.624;2024-03-02T06:11:36;19.90;52.80
44723;DHT22;30451;48.638;10.624;2024-03-02T06:14:03;19.90;52.80
44723;DHT22;30451;48.638;10.624;2024-03-02T06:16:29;20.00;52.80
44723;DHT22;30451;48.638;10.624;2024-03-02T06:18:55;19.90;52.80
44723;DHT22;30451;48.638;10.624;2024-03-02T06:21:26;19.90;52.80
44723;DHT22;30451;48.638;10.624;2024-03-02T06:23:52;20.00;52.80
44723;DHT22;30451;48.638;10.624;2024-03-02T06:26:18;19.90;52.80
44723;DHT22;30451;48.638;10.624;2024-03-02T06:28:44;19.90;52.80
44723;DHT22;30451;48.638;10.624;2024-03-02T06:31:10;19.90;52.80
44723;DHT22;30451;48.638;10.624;2024-03-02T06:33:36;19.90;52.80
44723;DHT22;30451;48.638;10.624;2024-03-02T06:36:02;19.90;52.80
44723;DHT22;30451;48.638;10.624;2024-03-02T06:38:28;19.90;52.80
44723;DHT22;30451;48.638;10.624;2024-03-02T06:40:54;19.90;52.80
44723;DHT22;30451;48.638;10.624;2024-03-02T06:43:23;19.90;52.80
44723;DHT22;30451;48.638;10.624;2024-03-02T06:45:52;19.90;52.90
44723;DHT22;30451;48.638;10.624;2024-03-02T06:48:18;19.90;52.90
44723;DHT22;30451;48.638;10.624;2024-03-02T06:50:49;19.90;52.80
44723;DHT22;30451;48.638;10.624;2024-03-02T06:53:15;19.90;52.80
44723;DHT22;30451;48.638;10.624;2024-03-02T06:55:44;19.90;52.80
44723;DHT22;30451;48.638;10.624;2024-03-02T06:58:12;19.90;52.90
44723;DHT22;30451;48.638;10.624;2024-03-02T07:00:37;19.90;52.90
44723;DHT22;30451;48.638;10.624;2024-03-02T07:03:03;19.90;52.90
44723;DHT22;30451;48.638;10.624;2024-03-02T07:05:29;19.90;52.90
44723;DHT22;30451;48.638;10.624;2024-03-02T07:07:55;19.90;52.90
44723;DHT22;30451;48.638;10.624;2024-03-02T07:10:20;19.90;52.90
44723;DHT22;30451;48.638;10.624;2024-03-02T07:12:46;19.90;52.90
44723;DHT22;30451;48.638;10.624;2024-03-02T07:15:11;19.90;52.90
44723;DHT22;30451;48.638;10.624;2024-03-02T07:17:54;19.90;52.90
44723;DHT22;30451;48.638;10.624;2024-03-02T07:20:20;19.90;52.90
44723;DHT22;30451;48.638;10.624;2024-03-02T07:22:46;19.90;52.90
44723;DHT22;30451;48.638;10.624;2024-03-02T07:25:12;19.90;53.00
44723;DHT22;30451;48.638;10.624;2024-03-02T07:27:38;19.80;52.90
44723;DHT22;30451;48.638;10.624;2024-03-02T07:30:04;19.90;53.00
44723;DHT22;30451;48.638;10.624;2024-03-02T07:32:30;19.80;52.90
44723;DHT22;30451;48.638;10.624;2024-03-02T07:34:56;19.80;52.90
44723;DHT22;30451;48.638;10.624;2024-03-02T07:37:22;19.80;52.90
44723;DHT22;30451;48.638;10.624;2024-03-02T07:39:48;19.80;52.90
44723;DHT22;30451;48.638;10.624;2024-03-02T07:42:14;19.80;52.90
44723;DHT22;30451;48.638;10.624;2024-03-02T07:44:40;19.80;52.90
44723;DHT22;30451;48.638;10.624;2024-03-02T07:47:06;19.80;52.90
44723;DHT22;30451;48.638;10.624;2024-03-02T07:49:32;19.80;52.90
44723;DHT22;30451;48.638;10.624;2024-03-02T07:51:57;19.80;52.90
44723;DHT22;30451;48.638;10.624;2024-03-02T07:54:24;19.80;52.90
44723;DHT22;30451;48.638;10.624;2024-03-02T07:56:49;19.80;52.90
44723;DHT22;30451;48.638;10.624;2024-03-02T07:59:15;19.80;52.90
44723;DHT22;30451;48.638;10.624;2024-03-02T08:01:40;19.80;52.90
44723;DHT22;30451;48.638;10.624;2024-03-02T08:04:06;19.80;52.90
44723;DHT22;30451;48.638;10.624;2024-03-02T08:06:33;19.80;52.90
44723;DHT22;30451;48.638;10.624;2024-03-02T08:09:00;19.80;52.90
44723;DHT22;30451;48.638;10.624;2024-03-02T08:11:26;19.80;52.90
44723;DHT22;30451;48.638;10.624;2024-03-02T08:13:53;19.80;52.90
44723;DHT22;30451;48.638;10.624;2024-03-02T08:16:21;19.80;52.90
44723;DHT22;30451;48.638;10.624;2024-03-02T08:18:50;19.80;52.90
44723;DHT22;30451;48.638;10.624;2024-03-02T08:21:16;19.80;52.80
44723;DHT22;30451;48.638;10.624;2024-03-02T08:23:45;19.80;52.80
44723;DHT22;30451;48.638;10.624;2024-03-02T08:26:11;19.80;52.80
44723;DHT22;30451;48.638;10.624;2024-03-02T08:28:36;19.80;52.80
44723;DHT22;30451;48.638;10.624;2024-03-02T08:31:03;19.80;52.80
44723;DHT22;30451;48.638;10.624;2024-03-02T08:33:29;19.80;52.80
44723;DHT22;30451;48.638;10.624;2024-03-02T08:35:54;19.80;52.80
44723;DHT22;30451;48.638;10.624;2024-03-02T08:38:20;19.80;52.80
44723;DHT22;30451;48.638;10.624;2024-03-02T08:40:46;19.80;53.30
44723;DHT22;30451;48.638;10.624;2024-03-02T08:43:12;19.80;52.80
44723;DHT22;30451;48.638;10.624;2024-03-02T08:45:38;19.80;52.80
44723;DHT22;30451;48.638;10.624;2024-03-02T08:48:08;19.80;52.80
44723;DHT22;30451;48.638;10.624;2024-03-02T08:50:35;19.80;52.70
44723;DHT22;30451;48.638;10.624;2024-03-02T08:53:00;19.80;52.70
44723;DHT22;30451;48.638;10.624;2024-03-02T08:55:26;19.80;52.70
44723;DHT22;30451;48.638;10.624;2024-03-02T08:57:52;19.80;52.70
44723;DHT22;30451;48.638;10.624;2024-03-02T09:00:18;19.80;52.70
44723;DHT22;30451;48.638;10.624;2024-03-02T09:02:44;19.80;52.70
44723;DHT22;30451;48.638;10.624;2024-03-02T09:05:10;19.80;52.70
44723;DHT22;30451;48.638;10.624;2024-03-02T09:07:36;19.80;52.80
44723;DHT22;30451;48.638;10.624;2024-03-02T09:10:05;19.80;52.80
44723;DHT22;30451;48.638;10.624;2024-03-02T09:12:31;19.80;52.80
44723;DHT22;30451;48.638;10.624;2024-03-02T09:14:57;19.80;52.80
44723;DHT22;30451;48.638;10.624;2024-03-02T09:17:23;19.80;52.80
44723;DHT22;30451;48.638;10.624;2024-03-02T09:19:48;19.80;52.80
44723;DHT22;30451;48.638;10.624;2024-03-02T09:22:18;19.80;52.80
44723;DHT22;30451;48.638;10.624;2024-03-02T09:24:44;19.80;52.80
44723;DHT22;30451;48.638;10.624;2024-03-02T09:27:09;19.80;52.80
44723;DHT22;30451;48.638;10.624;2024-03-02T09:29:35;19.80;52.90
44723;DHT22;30451;48.638;10.624;2024-03-02T09:32:00;19.80;52.80
44723;DHT22;30451;48.638;10.624;2024-03-02T09:34:26;19.80;52.80
44723;DHT22;30451;48.638;10.624;2024-03-02T09:36:52;19.80;52.90
44723;DHT22;30451;48.638;10.624;2024-03-02T09:39:17;19.80;52.90
44723;DHT22;30451;48.638;10.624;2024-03-02T09:41:43;19.80;53.00
44723;DHT22;30451;48.638;10.624;2024-03-02T09:44:09;19.90;53.10
44723;DHT22;30451;48.638;10.624;2024-03-02T09:46:35;19.80;53.00
44723;DHT22;30451;48.638;10.624;2024-03-02T09:49:02;19.80;53.00
44723;DHT22;30451;48.638;10.624;2024-03-02T09:51:28;19.90;53.10
44723;DHT22;30451;48.638;10.624;2024-03-02T09:53:55;19.90;53.10
44723;DHT22;30451;48.638;10.624;2024-03-02T09:56:23;19.80;53.10
44723;DHT22;30451;48.638;10.624;2024-03-02T09:58:49;19.80;53.20
44723;DHT22;30451;48.638;10.624;2024-03-02T10:01:14;19.90;53.50
44723;DHT22;30451;48.638;10.624;2024-03-02T10:03:40;20.00;53.50
44723;DHT22;30451;48.638;10.624;2024-03-02T10:06:25;20.00;53.50
44723;DHT22;30451;48.638;10.624;2024-03-02T10:08:51;20.20;53.50
44723;DHT22;30451;48.638;10.624;2024-03-02T10:11:33;20.20;53.50
44723;DHT22;30451;48.638;10.624;2024-03-02T10:14:13;20.40;53.10
44723;DHT22;30451;48.638;10.624;2024-03-02T10:16:44;20.50;53.10
44723;DHT22;30451;48.638;10.624;2024-03-02T10:21:43;20.60;52.80
44723;DHT22;30451;48.638;10.624;2024-03-02T10:24:09;20.70;52.80
44723;DHT22;30451;48.638;10.624;2024-03-02T10:26:34;20.70;52.60
44723;DHT22;30451;48.638;10.624;2024-03-02T10:29:00;20.80;52.60
44723;DHT22;30451;48.638;10.624;2024-03-02T10:31:26;20.90;52.60
44723;DHT22;30451;48.638;10.624;2024-03-02T10:33:54;20.90;52.50
44723;DHT22;30451;48.638;10.624;2024-03-02T10:36:20;21.00;52.50
44723;DHT22;30451;48.638;10.624;2024-03-02T10:38:46;21.10;52.40
44723;DHT22;30451;48.638;10.624;2024-03-02T10:41:17;21.20;52.40
44723;DHT22;30451;48.638;10.624;2024-03-02T10:43:43;21.20;52.20
44723;DHT22;30451;48.638;10.624;2024-03-02T10:46:11;21.30;52.20
44723;DHT22;30451;48.638;10.624;2024-03-02T10:48:39;21.40;51.90
44723;DHT22;30451;48.638;10.624;2024-03-02T10:51:06;21.50;52.00
44723;DHT22;30451;48.638;10.624;2024-03-02T10:53:32;21.60;51.80
44723;DHT22;30451;48.638;10.624;2024-03-02T10:55:58;21.60;51.60
44723;DHT22;30451;48.638;10.624;2024-03-02T10:58:32;21.70;51.50
44723;DHT22;30451;48.638;10.624;2024-03-02T11:01:03;21.70;51.10
44723;DHT22;30451;48.638;10.624;2024-03-02T11:03:35;21.80;51.10
44723;DHT22;30451;48.638;10.624;2024-03-02T11:06:03;21.80;51.10
44723;DHT22;30451;48.638;10.624;2024-03-02T11:08:34;21.80;51.10
44723;DHT22;30451;48.638;10.624;2024-03-02T11:11:08;21.80;51.10
44723;DHT22;30451;48.638;10.624;2024-03-02T11:13:38;21.80;51.10
44723;DHT22;30451;48.638;10.624;2024-03-02T11:16:27;21.80;51.10
44723;DHT22;30451;48.638;10.624;2024-03-02T11:19:01;21.80;51.10
44723;DHT22;30451;48.638;10.624;2024-03-02T11:21:27;21.80;51.00
44723;DHT22;30451;48.638;10.624;2024-03-02T11:23:53;21.80;51.10
44723;DHT22;30451;48.638;10.624;2024-03-02T11:26:19;21.90;51.10
44723;DHT22;30451;48.638;10.624;2024-03-02T11:28:45;21.90;51.00
44723;DHT22;30451;48.638;10.624;2024-03-02T11:31:11;21.90;51.00
44723;DHT22;30451;48.638;10.624;2024-03-02T11:33:37;21.90;51.00
44723;DHT22;30451;48.638;10.624;2024-03-02T11:36:02;21.90;50.90
44723;DHT22;30451;48.638;10.624;2024-03-02T11:38:33;21.90;50.90
44723;DHT22;30451;48.638;10.624;2024-03-02T11:41:00;21.90;50.80
44723;DHT22;30451;48.638;10.624;2024-03-02T11:43:28;21.90;50.80
44723;DHT22;30451;48.638;10.624;2024-03-02T11:46:00;21.90;50.80
44723;DHT22;30451;48.638;10.624;2024-03-02T11:48:29;21.90;50.90
44723;DHT22;30451;48.638;10.624;2024-03-02T11:50:58;21.90;50.90
44723;DHT22;30451;48.638;10.624;2024-03-02T11:53:24;22.00;50.90
44723;DHT22;30451;48.638;10.624;2024-03-02T11:55:58;22.00;51.00
44723;DHT22;30451;48.638;10.624;2024-03-02T11:58:24;22.00;50.90
44723;DHT22;30451;48.638;10.624;2024-03-02T12:00:53;22.00;50.90
44723;DHT22;30451;48.638;10.624;2024-03-02T12:03:21;22.00;50.90
44723;DHT22;30451;48.638;10.624;2024-03-02T12:05:53;22.00;50.90
44723;DHT22;30451;48.638;10.624;2024-03-02T12:08:19;22.10;51.00
44723;DHT22;30451;48.638;10.624;2024-03-02T12:10:57;22.00;51.00
44723;DHT22;30451;48.638;10.624;2024-03-02T12:13:23;22.00;51.00
44723;DHT22;30451;48.638;10.624;2024-03-02T12:15:53;22.10;51.00
44723;DHT22;30451;48.638;10.624;2024-03-02T12:18:20;22.10;51.00
44723;DHT22;30451;48.638;10.624;2024-03-02T12:20:46;22.10;51.50
44723;DHT22;30451;48.638;10.624;2024-03-02T12:23:14;22.10;51.00
44723;DHT22;30451;48.638;10.624;2024-03-02T12:25:40;22.10;51.10
44723;DHT22;30451;48.638;10.624;2024-03-02T12:28:06;22.10;51.10
44723;DHT22;30451;48.638;10.624;2024-03-02T12:30:38;22.10;51.00
44723;DHT22;30451;48.638;10.624;2024-03-02T12:33:05;22.10;51.00
44723;DHT22;30451;48.638;10.624;2024-03-02T12:35:31;22.20;51.00
44723;DHT22;30451;48.638;10.624;2024-03-02T12:37:58;22.20;51.00
44723;DHT22;30451;48.638;10.624;2024-03-02T12:40:25;22.20;50.90
44723;DHT22;30451;48.638;10.624;2024-03-02T12:42:51;22.30;50.90
44723;DHT22;30451;48.638;10.624;2024-03-02T12:45:17;22.30;50.90
44723;DHT22;30451;48.638;10.624;2024-03-02T12:47:49;22.30;50.90
44723;DHT22;30451;48.638;10.624;2024-03-02T12:50:16;22.30;50.80
44723;DHT22;30451;48.638;10.624;2024-03-02T12:52:43;22.30;50.70
44723;DHT22;30451;48.638;10.624;2024-03-02T12:55:09;22.30;50.70
44723;DHT22;30451;48.638;10.624;2024-03-02T12:57:35;22.30;50.70
44723;DHT22;30451;48.638;10.624;2024-03-02T13:00:06;22.30;50.60
44723;DHT22;30451;48.638;10.624;2024-03-02T13:02:35;22.40;50.60
44723;DHT22;30451;48.638;10.624;2024-03-02T13:05:01;22.40;50.60
44723;DHT22;30451;48.638;10.624;2024-03-02T13:07:27;22.40;51.10
44723;DHT22;30451;48.638;10.624;2024-03-02T13:09:53;22.40;50.60
44723;DHT22;30451;48.638;10.624;2024-03-02T13:12:23;22.40;50.50
44723;DHT22;30451;48.638;10.624;2024-03-02T13:14:52;22.40;50.50
44723;DHT22;30451;48.638;10.624;2024-03-02T13:17:19;22.50;50.50
44723;DHT22;30451;48.638;10.624;2024-03-02T13:19:52;22.50;50.40
44723;DHT22;30451;48.638;10.624;2024-03-02T13:22:18;22.50;50.40
44723;DHT22;30451;48.638;10.624;2024-03-02T13:24:44;22.50;50.40
44723;DHT22;30451;48.638;10.624;2024-03-02T13:27:10;22.50;50.40
44723;DHT22;30451;48.638;10.624;2024-03-02T13:29:35;22.50;50.40
44723;DHT22;30451;48.638;10.624;2024-03-02T13:32:01;22.50;50.40
44723;DHT22;30451;48.638;10.624;2024-03-02T13:34:26;22.50;50.40
44723;DHT22;30451;48.638;10.624;2024-03-02T13:36:52;22.50;50.40
44723;DHT22;30451;48.638;10.624;2024-03-02T13:39:18;22.50;50.40
44723;DHT22;30451;48.638;10.624;2024-03-02T13:41:43;22.50;50.40
44723;DHT22;30451;48.638;10.624;2024-03-02T13:44:17;22.50;50.40
44723;DHT22;30451;48.638;10.624;2024-03-02T13:46:43;22.40;50.40
44723;DHT22;30451;48.638;10.624;2024-03-02T13:49:11;22.50;50.40
44723;DHT22;30451;48.638;10.624;2024-03-02T13:51:37;22.50;50.40
44723;DHT22;30451;48.638;10.624;2024-03-02T13:54:02;22.50;50.30
44723;DHT22;30451;48.638;10.624;2024-03-02T13:56:29;22.50;50.30
44723;DHT22;30451;48.638;10.624;2024-03-02T13:58:55;22.50;50.30
44723;DHT22;30451;48.638;10.624;2024-03-02T14:01:20;22.50;50.30
44723;DHT22;30451;48.638;10.624;2024-03-02T14:03:46;22.50;50.30
44723;DHT22;30451;48.638;10.624;2024-03-02T14:06:12;22.60;50.30
44723;DHT22;30451;48.638;10.624;2024-03-02T14:08:38;22.50;50.20
44723;DHT22;30451;48.638;10.624;2024-03-02T14:11:04;22.50;50.20
44723;DHT22;30451;48.638;10.624;2024-03-02T14:13:29;22.60;50.20
44723;DHT22;30451;48.638;10.624;2024-03-02T14:15:55;22.60;50.10
44723;DHT22;30451;48.638;10.624;2024-03-02T14:18:21;22.70;50.10
44723;DHT22;30451;48.638;10.624;2024-03-02T14:20:47;22.60;50.00
44723;DHT22;30451;48.638;10.624;2024-03-02T14:23:20;22.70;50.10
44723;DHT22;30451;48.638;10.624;2024-03-02T14:25:46;22.70;50.10
44723;DHT22;30451;48.638;10.624;2024-03-02T14:28:13;22.70;50.00
44723;DHT22;30451;48.638;10.624;2024-03-02T14:30:38;22.70;50.00
44723;DHT22;30451;48.638;10.624;2024-03-02T14:33:04;22.70;49.90
44723;DHT22;30451;48.638;10.624;2024-03-02T14:35:30;22.70;49.90
44723;DHT22;30451;48.638;10.624;2024-03-02T14:37:56;22.70;49.90
44723;DHT22;30451;48.638;10.624;2024-03-02T14:40:23;22.70;49.90
44723;DHT22;30451;48.638;10.624;2024-03-02T14:42:52;22.70;49.80
44723;DHT22;30451;48.638;10.624;2024-03-02T14:45:17;22.70;49.80
44723;DHT22;30451;48.638;10.624;2024-03-02T14:47:43;22.70;49.70
44723;DHT22;30451;48.638;10.624;2024-03-02T14:50:09;22.70;49.70
44723;DHT22;30451;48.638;10.624;2024-03-02T14:52:35;22.70;49.70
44723;DHT22;30451;48.638;10.624;2024-03-02T14:55:01;22.70;49.70
44723;DHT22;30451;48.638;10.624;2024-03-02T14:57:29;22.70;49.60
44723;DHT22;30451;48.638;10.624;2024-03-02T14:59:55;22.70;49.50
44723;DHT22;30451;48.638;10.624;2024-03-02T15:02:20;22.70;49.50
44723;DHT22;30451;48.638;10.624;2024-03-02T15:04:47;22.70;49.50
44723;DHT22;30451;48.638;10.624;2024-03-02T15:07:13;22.80;49.40
44723;DHT22;30451;48.638;10.624;2024-03-02T15:09:39;22.80;49.40
44723;DHT22;30451;48.638;10.624;2024-03-02T15:12:05;22.80;49.40
44723;DHT22;30451;48.638;10.624;2024-03-02T15:14:32;22.80;49.50
44723;DHT22;30451;48.638;10.624;2024-03-02T15:16:58;22.80;49.40